Time;durP1;ratioP1;P1;durP2;ratioP2;P2;SDS_P1;SDS_P2;PMS_P1;PMS_P2;Temp;Humidity;BMP_temperature;BMP_pressure;BME280_temperature;BME280_humidity;BME280_pressure;Samples;Min_cycle;Max_cycle;Signal;HPM_P1;HPM_P2
2023/04/01 00:01:05;;;;;;;4.68;4.15;;;;;;;;;;10296165;28;20072;-66
2023/04/01 00:06:05;;;;;;;7.25;4.15;;;;;;;;;;10279320;28;20077;-67
2023/04/01 00:11:03;;;;;;;3.95;3.55;;;;;;;;;;10297999;28;20085;-67
2023/04/01 00:16:02;;;;;;;6.40;4.53;;;;;;;;;;10311801;28;20529;-67
2023/04/01 00:21:08;;;;;;;7.60;3.90;;;;;;;;;;10286037;28;20079;-66
2023/04/01 00:26:06;;;;;;;4.00;3.47;;;;;;;;;;10309389;28;20505;-67
2023/04/01 00:31:06;;;;;;;7.32;4.45;;;;;;;;;;10308433;28;20068;-66
2023/04/01 00:36:10;;;;;;;6.93;3.92;;;;;;;;;;10304030;28;20049;-67
2023/04/01 00:41:10;;;;;;;5.78;3.88;;;;;;;;;;10315980;28;20052;-66
2023/04/01 00:46:08;;;;;;;6.22;4.05;;;;;;;;;;10306748;28;20060;-67
2023/04/01 00:51:08;;;;;;;4.00;3.63;;;;;;;;;;10324118;28;20139;-66
2023/04/01 00:56:11;;;;;;;4.65;4.25;;;;;;;;;;10317287;28;20500;-66
2023/04/01 01:01:09;;;;;;;4.00;3.15;;;;;;;;;;10319958;28;20075;-66
2023/04/01 01:06:23;;;;;;;3.55;3.25;;;;;;;;;;10309910;28;20087;-66
2023/04/01 01:11:27;;;;;;;5.13;4.05;;;;;;;;;;10312971;28;20048;-66
2023/04/01 01:16:36;;;;;;;8.05;5.47;;;;;;;;;;10308224;28;20052;-66
2023/04/01 01:21:43;;;;;;;4.32;3.92;;;;;;;;;;10307042;28;20072;-66
2023/04/01 01:26:46;;;;;;;4.43;3.15;;;;;;;;;;10318483;28;20094;-66
2023/04/01 01:31:51;;;;;;;4.47;4.07;;;;;;;;;;10310379;28;20068;-66
2023/04/01 01:36:54;;;;;;;4.50;3.72;;;;;;;;;;10312304;28;20052;-67
2023/04/01 01:41:54;;;;;;;5.13;3.67;;;;;;;;;;10316402;28;20044;-66
2023/04/01 01:46:53;;;;;;;3.40;3.10;;;;;;;;;;10316320;28;20087;-66
2023/04/01 01:51:52;;;;;;;5.97;3.47;;;;;;;;;;10317923;28;20080;-66
2023/04/01 01:56:54;;;;;;;4.85;3.40;;;;;;;;;;10317895;28;20071;-67
2023/04/01 02:01:54;;;;;;;6.15;3.38;;;;;;;;;;10310724;28;20390;-67
2023/04/01 02:06:57;;;;;;;6.93;3.88;;;;;;;;;;10311265;28;20083;-67
2023/04/01 02:11:58;;;;;;;4.18;3.78;;;;;;;;;;10316063;28;20075;-67
2023/04/01 02:16:58;;;;;;;6.50;3.53;;;;;;;;;;10315790;28;20544;-67
2023/04/01 02:21:58;;;;;;;4.97;3.30;;;;;;;;;;10315146;28;20043;-67
2023/04/01 02:26:57;;;;;;;5.20;3.42;;;;;;;;;;10311734;28;20068;-67
2023/04/01 02:31:55;;;;;;;4.60;3.03;;;;;;;;;;10315274;28;20072;-67
2023/04/01 02:36:56;;;;;;;5.28;4.13;;;;;;;;;;10312919;28;20053;-67
2023/04/01 02:41:55;;;;;;;4.80;4.03;;;;;;;;;;10312325;28;20084;-67
2023/04/01 02:46:53;;;;;;;4.30;3.88;;;;;;;;;;10296971;28;20478;-67
2023/04/01 02:51:52;;;;;;;5.25;3.42;;;;;;;;;;10300767;28;20048;-67
2023/04/01 02:56:50;;;;;;;3.83;3.53;;;;;;;;;;10312844;28;20072;-67
2023/04/01 03:01:50;;;;;;;6.70;4.03;;;;;;;;;;10313141;28;20072;-67
2023/04/01 03:06:48;;;;;;;5.07;3.53;;;;;;;;;;10315608;28;20072;-67
2023/04/01 03:11:46;;;;;;;5.93;3.78;;;;;;;;;;10313979;28;20044;-66
2023/04/01 03:16:45;;;;;;;6.03;4.10;;;;;;;;;;10302197;28;20059;-67
2023/04/01 03:21:44;;;;;;;6.30;5.78;;;;;;;;;;10311474;28;20068;-67
2023/04/01 03:26:42;;;;;;;5.78;3.90;;;;;;;;;;10308463;28;20073;-67
2023/04/01 03:31:41;;;;;;;4.32;3.45;;;;;;;;;;10302001;28;20090;-67
2023/04/01 03:36:39;;;;;;;12.68;9.60;;;;;;;;;;10315797;28;20068;-67
2023/04/01 03:41:39;;;;;;;5.65;4.57;;;;;;;;;;10313109;28;20068;-66
2023/04/01 03:46:37;;;;;;;7.13;4.82;;;;;;;;;;10306226;28;20091;-67
2023/04/01 03:51:36;;;;;;;10.02;3.88;;;;;;;;;;10309532;28;20079;-67
2023/04/01 03:56:34;;;;;;;4.20;3.80;;;;;;;;;;10310972;28;20079;-67
2023/04/01 04:01:34;;;;;;;3.78;3.30;;;;;;;;;;10289453;28;20102;-67
2023/04/01 04:06:33;;;;;;;6.78;3.00;;;;;;;;;;10303838;28;20064;-67
2023/04/01 04:11:32;;;;;;;3.70;3.30;;;;;;;;;;10302157;28;20056;-67
2023/04/01 04:16:31;;;;;;;7.07;3.80;;;;;;;;;;10310064;28;20083;-67
2023/04/01 04:21:34;;;;;;;4.15;3.25;;;;;;;;;;10306468;28;20045;-67
2023/04/01 04:26:32;;;;;;;6.32;3.85;;;;;;;;;;10309185;28;20498;-64
2023/04/01 04:31:31;;;;;;;6.05;3.20;;;;;;;;;;10308330;28;20049;-65
2023/04/01 04:36:31;;;;;;;3.85;3.45;;;;;;;;;;10307319;28;20061;-65
2023/04/01 04:41:30;;;;;;;4.43;3.83;;;;;;;;;;10320274;28;20072;-67
2023/04/01 04:46:29;;;;;;;5.50;4.20;;;;;;;;;;10309182;28;20514;-67
2023/04/01 04:51:36;;;;;;;7.25;3.53;;;;;;;;;;10302766;28;20073;-67
2023/04/01 04:56:36;;;;;;;5.95;3.90;;;;;;;;;;10309197;28;20049;-67
2023/04/01 05:01:36;;;;;;;4.22;3.53;;;;;;;;;;10306534;28;20611;-66
2023/04/01 05:06:36;;;;;;;4.90;3.70;;;;;;;;;;10314469;28;20143;-67
2023/04/01 05:11:36;;;;;;;4.22;3.60;;;;;;;;;;10312320;28;20087;-66
2023/04/01 05:16:34;;;;;;;6.90;3.90;;;;;;;;;;10289322;28;20497;-65
2023/04/01 05:21:32;;;;;;;6.45;3.80;;;;;;;;;;10286510;28;20084;-65
2023/04/01 05:26:32;;;;;;;4.20;3.72;;;;;;;;;;10293294;28;20080;-65
2023/04/01 05:31:32;;;;;;;9.80;3.65;;;;;;;;;;10272223;28;20073;-66
2023/04/01 05:36:31;;;;;;;5.55;3.78;;;;;;;;;;10281705;28;20490;-66
2023/04/01 05:41:30;;;;;;;7.10;4.03;;;;;;;;;;10290706;28;20084;-66
2023/04/01 05:46:28;;;;;;;6.18;4.30;;;;;;;;;;10302516;28;20068;-67
2023/04/01 05:51:35;;;;;;;8.80;3.33;;;;;;;;;;10310088;28;20080;-67
2023/04/01 05:56:33;;;;;;;4.18;3.40;;;;;;;;;;10293254;28;20065;-64
2023/04/01 06:01:32;;;;;;;5.32;3.78;;;;;;;;;;10286625;28;20064;-67
2023/04/01 06:06:31;;;;;;;4.20;3.35;;;;;;;;;;10293663;28;20085;-66
2023/04/01 06:11:49;;;;;;;7.65;3.90;;;;;;;;;;10290630;28;20465;-67
2023/04/01 06:16:55;;;;;;;12.10;4.65;;;;;;;;;;10303708;28;20075;-66
2023/04/01 06:22:09;;;;;;;3.92;3.20;;;;;;;;;;10285803;28;20075;-66
2023/04/01 06:27:21;;;;;;;10.18;8.77;;;;;;;;;;10303583;28;20102;-66
2023/04/01 06:32:38;;;;;;;11.07;4.20;;;;;;;;;;10280407;28;20285;-68
2023/04/01 06:37:48;;;;;;;9.07;6.22;;;;;;;;;;10301070;28;20073;-68
2023/04/01 06:42:51;;;;;;;7.53;5.90;;;;;;;;;;10295306;28;20068;-68
2023/04/01 06:48:18;;;;;;;47.33;34.17;;;;;;;;;;10303381;28;20080;-68
2023/04/01 06:53:37;;;;;;;77.55;57.13;;;;;;;;;;10305189;28;20518;-68
2023/04/01 06:59:11;;;;;;;14.38;8.23;;;;;;;;;;10301366;28;20068;-68
2023/04/01 07:04:12;;;;;;;8.18;5.15;;;;;;;;;;10298419;28;20068;-66
2023/04/01 07:09:12;;;;;;;12.05;7.75;;;;;;;;;;10303901;28;20088;-67
2023/04/01 07:14:33;;;;;;;34.33;30.30;;;;;;;;;;10302677;28;20510;-66
2023/04/01 07:19:35;;;;;;;16.17;12.45;;;;;;;;;;10300096;28;20052;-64
2023/04/01 07:24:38;;;;;;;12.07;10.73;;;;;;;;;;10299287;28;20532;-68
2023/04/01 07:29:40;;;;;;;21.02;14.05;;;;;;;;;;10304565;28;20091;-68
2023/04/01 07:34:45;;;;;;;13.80;9.93;;;;;;;;;;10310011;28;20076;-68
2023/04/01 07:39:49;;;;;;;10.77;9.68;;;;;;;;;;10304811;28;20482;-68
2023/04/01 07:45:00;;;;;;;15.35;10.68;;;;;;;;;;10296950;28;20141;-68
2023/04/01 07:50:06;;;;;;;12.70;11.23;;;;;;;;;;10311348;28;20488;-67
2023/04/01 07:55:08;;;;;;;11.90;10.70;;;;;;;;;;10301148;28;20512;-67
2023/04/01 08:00:10;;;;;;;26.02;14.85;;;;;;;;;;10296803;28;20072;-67
2023/04/01 08:05:23;;;;;;;20.73;16.48;;;;;;;;;;10302751;28;20526;-68
2023/04/01 08:10:24;;;;;;;12.43;7.97;;;;;;;;;;10301661;28;20072;-67
2023/04/01 08:15:47;;;;;;;29.98;22.38;;;;;;;;;;10318585;28;20079;-67
2023/04/01 08:20:59;;;;;;;9.55;4.90;;;;;;;;;;10299300;28;20055;-68
2023/04/01 08:26:02;;;;;;;8.02;5.40;;;;;;;;;;10289389;28;20056;-68
2023/04/01 08:31:10;;;;;;;7.10;5.07;;;;;;;;;;10304584;28;20087;-68
2023/04/01 08:36:11;;;;;;;30.58;27.60;;;;;;;;;;10309468;28;20402;-68
2023/04/01 08:41:21;;;;;;;11.10;7.28;;;;;;;;;;10301225;28;20521;-68
2023/04/01 08:47:01;;;;;;;13.63;8.65;;;;;;;;;;10311099;28;20518;-68
2023/04/01 08:52:10;;;;;;;5.72;3.92;;;;;;;;;;10269789;28;20069;-68
2023/04/01 08:57:14;;;;;;;8.30;5.53;;;;;;;;;;10308628;28;20044;-68
2023/04/01 09:02:50;;;;;;;9.35;7.70;;;;;;;;;;10312772;28;20076;-66
2023/04/01 09:08:01;;;;;;;28.80;19.20;;;;;;;;;;10292610;28;20509;-66
2023/04/01 09:13:09;;;;;;;32.03;22.02;;;;;;;;;;10302149;28;20076;-67
2023/04/01 09:18:25;;;;;;;20.13;13.68;;;;;;;;;;10307501;28;20036;-68
2023/04/01 09:23:38;;;;;;;18.08;11.52;;;;;;;;;;10290935;28;20595;-67
2023/04/01 09:28:43;;;;;;;13.82;9.43;;;;;;;;;;10284303;28;20084;-67
2023/04/01 09:33:41;;;;;;;;;;;;;;;;;;10318620;28;20056;-68
2023/04/01 09:38:45;;;;;;;11.95;7.55;;;;;;;;;;10302411;28;19971;-69
2023/04/01 09:43:56;;;;;;;10.60;7.00;;;;;;;;;;10279002;28;20104;-67
2023/04/01 09:49:12;;;;;;;9.23;6.43;;;;;;;;;;10288904;28;20482;-68
2023/04/01 09:54:19;;;;;;;11.32;7.32;;;;;;;;;;10292910;28;20513;-67
2023/04/01 09:59:47;;;;;;;11.63;6.70;;;;;;;;;;10272557;28;20076;-67
2023/04/01 10:05:22;;;;;;;16.63;7.63;;;;;;;;;;10225096;28;20118;-68
2023/04/01 10:10:39;;;;;;;10.80;8.48;;;;;;;;;;10301707;28;20075;-68
2023/04/01 10:15:56;;;;;;;7.90;5.25;;;;;;;;;;10301270;28;20076;-68
2023/04/01 10:21:08;;;;;;;13.15;6.78;;;;;;;;;;10302212;28;20087;-68
2023/04/01 10:26:16;;;;;;;9.75;5.32;;;;;;;;;;10293719;28;20076;-68
2023/04/01 10:31:33;;;;;;;11.00;5.18;;;;;;;;;;10291487;28;20139;-70
2023/04/01 10:36:45;;;;;;;21.08;9.23;;;;;;;;;;10256331;28;20514;-69
2023/04/01 10:42:03;;;;;;;14.68;7.20;;;;;;;;;;10289804;28;20092;-68
2023/04/01 10:47:40;;;;;;;15.15;10.10;;;;;;;;;;10282539;28;20139;-68
2023/04/01 10:52:58;;;;;;;6.57;4.97;;;;;;;;;;10287606;28;20064;-68
2023/04/01 10:58:39;;;;;;;11.50;5.57;;;;;;;;;;10285884;28;20068;-68
2023/04/01 11:04:17;;;;;;;8.77;4.65;;;;;;;;;;10300234;28;20068;-68
2023/04/01 11:09:52;;;;;;;8.55;5.18;;;;;;;;;;10306243;28;20073;-69
2023/04/01 11:15:06;;;;;;;9.13;4.72;;;;;;;;;;10299990;28;20072;-67
2023/04/01 11:20:19;;;;;;;14.30;5.15;;;;;;;;;;10305838;28;20084;-68
2023/04/01 11:25:20;;;;;;;9.05;5.28;;;;;;;;;;10310027;28;20068;-67
2023/04/01 11:30:48;;;;;;;12.30;10.25;;;;;;;;;;10311784;28;20072;-69
2023/04/01 11:35:58;;;;;;;11.43;5.30;;;;;;;;;;10313722;28;20056;-69
2023/04/01 11:41:00;;;;;;;13.48;7.38;;;;;;;;;;10313270;28;20079;-68
2023/04/01 11:46:20;;;;;;;13.73;9.88;;;;;;;;;;10305328;28;20068;-68
2023/04/01 11:51:30;;;;;;;9.85;6.20;;;;;;;;;;10312471;28;20072;-68
2023/04/01 11:56:36;;;;;;;15.48;9.98;;;;;;;;;;10312616;28;20056;-68
2023/04/01 12:01:38;;;;;;;8.90;6.45;;;;;;;;;;10300749;28;20079;-68
2023/04/01 12:06:42;;;;;;;14.90;9.63;;;;;;;;;;10311004;28;20040;-68
2023/04/01 12:11:46;;;;;;;17.42;10.23;;;;;;;;;;10304105;28;20076;-68
2023/04/01 12:16:51;;;;;;;15.45;10.70;;;;;;;;;;10314183;28;20075;-68
2023/04/01 12:21:59;;;;;;;14.18;10.25;;;;;;;;;;10314104;28;20076;-68
2023/04/01 12:27:03;;;;;;;14.75;5.93;;;;;;;;;;10314180;28;20509;-68
2023/04/01 12:32:05;;;;;;;13.05;9.13;;;;;;;;;;10316999;28;20071;-68
2023/04/01 12:37:09;;;;;;;10.35;6.18;;;;;;;;;;10320124;28;20052;-69
2023/04/01 12:42:11;;;;;;;12.00;8.48;;;;;;;;;;10322004;28;20662;-69
2023/04/01 12:47:27;;;;;;;12.10;7.50;;;;;;;;;;10321462;28;20064;-68
2023/04/01 12:52:30;;;;;;;15.70;8.60;;;;;;;;;;10311040;28;20072;-68
2023/04/01 12:57:34;;;;;;;13.43;8.70;;;;;;;;;;10321155;28;20075;-68
2023/04/01 13:02:39;;;;;;;16.02;11.23;;;;;;;;;;10320597;28;20428;-68
2023/04/01 13:07:51;;;;;;;13.82;10.43;;;;;;;;;;10319873;28;20045;-67
2023/04/01 13:12:58;;;;;;;12.70;8.57;;;;;;;;;;10307788;28;20052;-69
2023/04/01 13:18:01;;;;;;;12.77;9.10;;;;;;;;;;10320613;28;20052;-69
2023/04/01 13:23:06;;;;;;;14.85;8.73;;;;;;;;;;10319351;28;20063;-69
2023/04/01 13:28:10;;;;;;;11.23;8.38;;;;;;;;;;10313261;28;20448;-69
2023/04/01 13:33:17;;;;;;;15.32;9.50;;;;;;;;;;10314314;28;20060;-69
2023/04/01 13:38:31;;;;;;;9.80;6.88;;;;;;;;;;10318400;28;20080;-69
2023/04/01 13:43:32;;;;;;;17.80;9.55;;;;;;;;;;10318834;28;20068;-69
2023/04/01 13:48:45;;;;;;;17.17;10.52;;;;;;;;;;10306516;28;20079;-69
2023/04/01 13:53:51;;;;;;;22.17;16.70;;;;;;;;;;10319165;28;20072;-67
2023/04/01 13:59:03;;;;;;;22.02;11.00;;;;;;;;;;10318943;28;20115;-67
2023/04/01 14:04:20;;;;;;;21.52;14.50;;;;;;;;;;10318814;28;20079;-67
2023/04/01 14:09:31;;;;;;;28.40;20.98;;;;;;;;;;10322052;28;20057;-68
2023/04/01 14:14:35;;;;;;;20.40;14.15;;;;;;;;;;10320013;28;20047;-68
2023/04/01 14:19:42;;;;;;;13.60;10.57;;;;;;;;;;10317298;28;20060;-67
2023/04/01 14:24:53;;;;;;;24.77;18.10;;;;;;;;;;10317300;28;20462;-68
2023/04/01 14:29:59;;;;;;;21.45;15.85;;;;;;;;;;10316635;28;20067;-68
2023/04/01 14:35:06;;;;;;;20.55;12.82;;;;;;;;;;10303745;28;20461;-68
2023/04/01 14:40:20;;;;;;;19.73;14.57;;;;;;;;;;10314779;28;20048;-68
2023/04/01 14:45:27;;;;;;;19.95;14.45;;;;;;;;;;10304326;28;20060;-68
2023/04/01 14:50:27;;;;;;;26.17;19.27;;;;;;;;;;10316425;28;20068;-68
2023/04/01 14:55:31;;;;;;;19.48;13.73;;;;;;;;;;10315385;28;20071;-67
2023/04/01 15:00:40;;;;;;;17.15;12.75;;;;;;;;;;10309270;28;20477;-68
2023/04/01 15:05:43;;;;;;;15.02;11.85;;;;;;;;;;10284423;28;20481;-68
2023/04/01 15:10:55;;;;;;;16.30;11.82;;;;;;;;;;10315446;28;20080;-68
2023/04/01 15:16:01;;;;;;;14.18;12.70;;;;;;;;;;10315314;28;20064;-69
2023/04/01 15:21:16;;;;;;;18.23;12.55;;;;;;;;;;10301618;28;20060;-69
2023/04/01 15:26:31;;;;;;;17.73;11.80;;;;;;;;;;10315577;28;20068;-67
2023/04/01 15:31:34;;;;;;;16.98;11.18;;;;;;;;;;10314434;28;20080;-67
2023/04/01 15:36:39;;;;;;;12.80;8.45;;;;;;;;;;10314724;28;20075;-67
2023/04/01 15:41:43;;;;;;;11.65;7.90;;;;;;;;;;10313733;28;20060;-67
2023/04/01 15:46:45;;;;;;;15.82;10.02;;;;;;;;;;10300841;28;20501;-67
2023/04/01 15:52:04;;;;;;;13.57;9.55;;;;;;;;;;10301646;28;20468;-68
2023/04/01 15:57:26;;;;;;;24.75;22.27;;;;;;;;;;10310493;28;20076;-69
2023/04/01 16:02:32;;;;;;;39.75;20.98;;;;;;;;;;10299897;28;20118;-67
2023/04/01 16:07:48;;;;;;;27.00;15.05;;;;;;;;;;10318372;28;20072;-67
2023/04/01 16:12:53;;;;;;;23.02;16.15;;;;;;;;;;10321803;28;20532;-68
2023/04/01 16:18:09;;;;;;;31.33;21.73;;;;;;;;;;10322359;28;20616;-68
2023/04/01 16:23:14;;;;;;;43.05;30.80;;;;;;;;;;10311588;28;20076;-68
2023/04/01 16:28:20;;;;;;;19.67;14.25;;;;;;;;;;10322612;28;20067;-68
2023/04/01 16:33:22;;;;;;;18.45;8.20;;;;;;;;;;10322279;28;20141;-68
2023/04/01 16:38:24;;;;;;;19.60;10.73;;;;;;;;;;10321037;28;20456;-69
2023/04/01 16:43:26;;;;;;;18.63;11.40;;;;;;;;;;10321380;28;20095;-70
2023/04/01 16:48:29;;;;;;;21.08;13.38;;;;;;;;;;10321472;28;20072;-70
2023/04/01 16:53:37;;;;;;;15.57;8.40;;;;;;;;;;10320444;28;20068;-70
2023/04/01 16:58:36;;;;;;;9.02;7.05;;;;;;;;;;10319991;28;20076;-69
2023/04/01 17:03:38;;;;;;;18.38;12.95;;;;;;;;;;10321651;28;20447;-70
2023/04/01 17:08:43;;;;;;;18.92;13.15;;;;;;;;;;10319214;28;20083;-70
2023/04/01 17:13:44;;;;;;;68.50;35.50;;;;;;;;;;10318469;28;20076;-70
2023/04/01 17:18:46;;;;;;;42.50;27.55;;;;;;;;;;10304764;28;20061;-69
2023/04/01 17:23:50;;;;;;;19.27;14.35;;;;;;;;;;10314571;28;20068;-68
2023/04/01 17:28:51;;;;;;;20.40;12.90;;;;;;;;;;10326265;28;20075;-67
2023/04/01 17:33:55;;;;;;;13.13;9.88;;;;;;;;;;10318113;28;20339;-69
2023/04/01 17:39:00;;;;;;;13.40;8.00;;;;;;;;;;10303969;28;20080;-69
2023/04/01 17:44:02;;;;;;;8.43;5.93;;;;;;;;;;10298739;28;20071;-68
2023/04/01 17:49:04;;;;;;;8.65;5.72;;;;;;;;;;10286621;28;20091;-68
2023/04/01 17:54:11;;;;;;;10.85;4.95;;;;;;;;;;10290166;28;20075;-67
2023/04/01 17:59:14;;;;;;;6.03;4.68;;;;;;;;;;10284065;28;20060;-68
2023/04/01 18:04:24;;;;;;;10.37;8.33;;;;;;;;;;10279390;28;20077;-67
2023/04/01 18:09:29;;;;;;;17.92;13.38;;;;;;;;;;10288497;28;20079;-69
2023/04/01 18:14:45;;;;;;;15.82;11.40;;;;;;;;;;10306734;28;20072;-69
2023/04/01 18:19:47;;;;;;;14.57;8.35;;;;;;;;;;10317993;28;20505;-68
2023/04/01 18:24:55;;;;;;;11.02;6.20;;;;;;;;;;10309470;28;20075;-68
2023/04/01 18:29:56;;;;;;;8.63;5.35;;;;;;;;;;10291994;28;20049;-70
2023/04/01 18:34:57;;;;;;;9.75;6.32;;;;;;;;;;10305506;28;20068;-68
2023/04/01 18:40:00;;;;;;;15.80;11.00;;;;;;;;;;10306484;28;20522;-70
2023/04/01 18:45:02;;;;;;;20.77;12.95;;;;;;;;;;10314663;28;20174;-69
2023/04/01 18:50:02;;;;;;;11.60;8.32;;;;;;;;;;10309380;28;20485;-70
2023/04/01 18:55:15;;;;;;;12.18;7.38;;;;;;;;;;10311326;28;20083;-69
2023/04/01 19:00:21;;;;;;;11.10;7.55;;;;;;;;;;10285153;28;20052;-69
2023/04/01 19:05:20;;;;;;;13.32;7.93;;;;;;;;;;10301244;28;20507;-69
2023/04/01 19:10:23;;;;;;;8.82;6.20;;;;;;;;;;10292355;28;20278;-69
2023/04/01 19:15:32;;;;;;;7.72;6.18;;;;;;;;;;10303591;28;20191;-69
2023/04/01 19:20:33;;;;;;;12.13;6.85;;;;;;;;;;10298696;28;20075;-69
2023/04/01 19:25:36;;;;;;;7.57;6.07;;;;;;;;;;10287113;28;20056;-69
2023/04/01 19:30:42;;;;;;;10.98;6.55;;;;;;;;;;10286390;28;20167;-69
2023/04/01 19:35:44;;;;;;;9.63;6.28;;;;;;;;;;10298083;28;20055;-69
2023/04/01 19:40:46;;;;;;;10.90;6.85;;;;;;;;;;10290372;28;20436;-68
2023/04/01 19:45:48;;;;;;;11.50;6.50;;;;;;;;;;10275485;28;20077;-68
2023/04/01 19:50:49;;;;;;;11.23;6.95;;;;;;;;;;10287871;28;20083;-69
2023/04/01 19:55:51;;;;;;;7.38;6.53;;;;;;;;;;10307945;28;20044;-68
2023/04/01 20:00:54;;;;;;;10.27;7.18;;;;;;;;;;10292728;28;20076;-67
2023/04/01 20:06:00;;;;;;;8.52;7.18;;;;;;;;;;10291433;28;20174;-68
2023/04/01 20:11:16;;;;;;;12.98;9.40;;;;;;;;;;10282016;28;20071;-71
2023/04/01 20:16:16;;;;;;;13.68;10.63;;;;;;;;;;10281185;28;20111;-69
2023/04/01 20:21:20;;;;;;;9.27;7.05;;;;;;;;;;10288955;28;20500;-69
2023/04/01 20:26:21;;;;;;;7.77;5.10;;;;;;;;;;10313531;28;20072;-69
2023/04/01 20:31:26;;;;;;;14.85;10.70;;;;;;;;;;10306066;28;20083;-69
2023/04/01 20:36:28;;;;;;;9.90;6.30;;;;;;;;;;10305777;28;20068;-69
2023/04/01 20:41:29;;;;;;;6.28;3.65;;;;;;;;;;10301593;28;20082;-68
2023/04/01 20:46:32;;;;;;;19.85;12.98;;;;;;;;;;10309017;28;20445;-68
2023/04/01 20:51:33;;;;;;;20.70;12.70;;;;;;;;;;10313141;28;20072;-69
2023/04/01 20:56:34;;;;;;;8.05;5.70;;;;;;;;;;10319080;28;20127;-69
2023/04/01 21:01:41;;;;;;;5.13;4.28;;;;;;;;;;10320243;28;20460;-69
2023/04/01 21:06:55;;;;;;;5.82;5.20;;;;;;;;;;10297722;28;20072;-69
2023/04/01 21:11:56;;;;;;;6.00;4.28;;;;;;;;;;10297288;28;20525;-68
2023/04/01 21:17:01;;;;;;;8.75;7.20;;;;;;;;;;10319784;28;20094;-68
2023/04/01 21:21:59;;;;;;;;;;;;;;;;;;10319764;28;20064;-68
2023/04/01 21:27:01;;;;;;;5.35;4.55;;;;;;;;;;10317189;28;20038;-68
2023/04/01 21:32:05;;;;;;;12.32;8.60;;;;;;;;;;10318902;28;20517;-68
2023/04/01 21:37:13;;;;;;;9.60;6.68;;;;;;;;;;10317216;28;20150;-68
2023/04/01 21:42:15;;;;;;;10.35;8.23;;;;;;;;;;10304074;28;20056;-68
2023/04/01 21:47:41;;;;;;;9.38;6.38;;;;;;;;;;10318241;28;20060;-68
2023/04/01 21:52:47;;;;;;;7.82;4.72;;;;;;;;;;10318366;28;20524;-68
2023/04/01 21:58:04;;;;;;;9.02;5.43;;;;;;;;;;10318756;28;20069;-68
2023/04/01 22:03:17;;;;;;;6.50;3.28;;;;;;;;;;10307008;28;20044;-68
2023/04/01 22:08:35;;;;;;;12.55;10.93;;;;;;;;;;10288797;28;20079;-68
2023/04/01 22:13:35;;;;;;;11.52;8.40;;;;;;;;;;10317461;28;20075;-68
2023/04/01 22:18:34;;;;;;;4.85;3.55;;;;;;;;;;10308808;28;20075;-69
2023/04/01 22:23:37;;;;;;;4.03;2.97;;;;;;;;;;10314947;28;20413;-69
2023/04/01 22:28:39;;;;;;;5.65;4.32;;;;;;;;;;10317518;28;20076;-69
2023/04/01 22:33:40;;;;;;;5.57;3.85;;;;;;;;;;10308982;28;20513;-69
2023/04/01 22:38:45;;;;;;;7.15;4.78;;;;;;;;;;10315928;28;20080;-69
2023/04/01 22:43:44;;;;;;;10.23;8.02;;;;;;;;;;10289686;28;20037;-69
2023/04/01 22:48:44;;;;;;;9.95;7.00;;;;;;;;;;10316472;28;20397;-69
2023/04/01 22:53:51;;;;;;;5.35;2.83;;;;;;;;;;10315671;28;20521;-69
2023/04/01 22:58:52;;;;;;;5.18;3.35;;;;;;;;;;10316348;28;20052;-69
2023/04/01 23:03:50;;;;;;;3.78;2.85;;;;;;;;;;10316021;28;20066;-68
2023/04/01 23:09:00;;;;;;;3.85;2.92;;;;;;;;;;10316136;28;20060;-68
2023/04/01 23:14:04;;;;;;;4.05;3.65;;;;;;;;;;10353247;28;20040;-69
2023/04/01 23:19:07;;;;;;;4.35;3.03;;;;;;;;;;10314325;28;20052;-69
2023/04/01 23:24:12;;;;;;;11.65;8.93;;;;;;;;;;10301113;28;20045;-69
2023/04/01 23:29:10;;;;;;;;;;;;;;;;;;10308626;28;20065;-69
2023/04/01 23:34:22;;;;;;;3.67;3.17;;;;;;;;;;10307018;28;20310;-69
2023/04/01 23:39:27;;;;;;;3.78;2.30;;;;;;;;;;10294004;28;20044;-68
2023/04/01 23:44:26;;;;;;;3.85;2.75;;;;;;;;;;10301814;28;20072;-69
2023/04/01 23:49:26;;;;;;;3.03;2.08;;;;;;;;;;10304618;28;20056;-69
2023/04/01 23:54:30;;;;;;;2.60;2.03;;;;;;;;;;10310930;28;20072;-69
2023/04/01 23:59:32;;;;;;;5.93;3.08;;;;;;;;;;10312763;28;20044;-69
